createdAt,value
2023-02-03T00:00:42.343Z,1.20
2023-02-03T00:03:08.914Z,0.90
2023-02-03T00:05:36.546Z,0.90
2023-02-03T00:08:04.807Z,0.90
2023-02-03T00:10:31.350Z,0.95
2023-02-03T00:12:58.071Z,1.08
2023-02-03T00:15:24.468Z,1.02
2023-02-03T00:17:50.901Z,1.08
2023-02-03T00:20:17.453Z,1.30
2023-02-03T00:22:43.864Z,1.15
2023-02-03T00:25:10.377Z,1.15
2023-02-03T00:27:36.916Z,1.10
2023-02-03T00:30:04.134Z,0.90
2023-02-03T00:32:30.793Z,1.00
2023-02-03T00:35:00.108Z,1.00
2023-02-03T00:37:26.543Z,1.33
2023-02-03T00:39:53.165Z,1.42
2023-02-03T00:42:19.619Z,1.70
2023-02-03T00:44:46.002Z,1.80
2023-02-03T00:47:12.365Z,3.47
2023-02-03T00:49:38.848Z,3.83
2023-02-03T00:52:05.523Z,1.20
2023-02-03T00:54:33.655Z,1.35
2023-02-03T00:57:00.191Z,1.58
2023-02-03T00:59:26.629Z,1.30
2023-02-03T01:01:53.117Z,1.13
2023-02-03T01:04:19.867Z,0.95
2023-02-03T01:06:47.675Z,0.93
2023-02-03T01:09:14.066Z,1.05
2023-02-03T01:11:40.723Z,1.02
2023-02-03T01:14:07.423Z,0.65
2023-02-03T01:16:33.847Z,1.15
2023-02-03T01:19:00.406Z,0.80
2023-02-03T01:21:26.926Z,0.73
2023-02-03T01:23:54.275Z,0.80
2023-02-03T01:26:22.565Z,0.95
2023-02-03T01:28:53.983Z,0.70
2023-02-03T01:31:29.991Z,0.60
2023-02-03T01:33:57.227Z,1.20
2023-02-03T01:36:26.069Z,0.80
2023-02-03T01:38:53.742Z,0.80
2023-02-03T01:41:22.823Z,0.80
2023-02-03T01:43:51.980Z,0.77
2023-02-03T01:46:35.907Z,1.13
2023-02-03T01:49:13.312Z,0.90
2023-02-03T01:51:42.073Z,1.10
2023-02-03T01:54:16.836Z,1.00
2023-02-03T01:56:48.074Z,0.90
2023-02-03T01:59:17.725Z,1.40
2023-02-03T02:01:44.792Z,1.13
2023-02-03T02:04:11.715Z,1.40
2023-02-03T02:06:38.487Z,1.40
2023-02-03T02:09:05.298Z,1.00
2023-02-03T02:11:31.794Z,0.95
2023-02-03T02:14:02.458Z,1.20
2023-02-03T02:16:41.462Z,1.38
2023-02-03T02:19:31.189Z,1.13
2023-02-03T02:22:31.469Z,1.20
2023-02-03T02:25:52.052Z,1.00
2023-02-03T02:28:40.232Z,1.63
2023-02-03T02:31:41.243Z,2.00
2023-02-03T02:37:04.711Z,1.55
2023-02-03T02:39:51.173Z,1.58
2023-02-03T02:42:22.720Z,1.60
2023-02-03T02:44:58.470Z,2.22
2023-02-03T02:47:25.288Z,1.92
2023-02-03T02:50:01.245Z,1.77
2023-02-03T02:52:31.553Z,1.77
2023-02-03T02:55:02.467Z,1.40
2023-02-03T02:59:56.362Z,1.63
2023-02-03T03:02:22.898Z,1.65
2023-02-03T03:04:51.077Z,2.63
2023-02-03T03:07:24.012Z,1.98
2023-02-03T03:10:00.256Z,1.35
2023-02-03T03:12:31.233Z,1.77
2023-02-03T03:15:21.785Z,1.92
2023-02-03T03:17:58.822Z,1.50
2023-02-03T03:20:27.911Z,1.33
2023-02-03T03:23:09.323Z,1.70
2023-02-03T03:25:46.992Z,1.50
2023-02-03T03:28:22.384Z,1.40
2023-02-03T03:30:49.160Z,1.30
2023-02-03T03:33:18.201Z,1.65
2023-02-03T03:35:59.022Z,2.08
2023-02-03T03:38:33.440Z,1.27
2023-02-03T03:41:07.201Z,1.45
2023-02-03T03:43:38.789Z,1.50
2023-02-03T03:46:20.930Z,1.48
2023-02-03T03:49:02.972Z,1.13
2023-02-03T03:51:37.826Z,1.63
2023-02-03T03:54:09.711Z,1.52
2023-02-03T03:56:46.733Z,1.30
2023-02-03T03:59:16.437Z,1.40
2023-02-03T04:01:43.121Z,1.15
2023-02-03T04:04:11.098Z,1.05
2023-02-03T04:06:39.206Z,1.20
2023-02-03T04:09:06.712Z,1.00
2023-02-03T04:11:33.466Z,1.67
2023-02-03T04:13:59.869Z,1.20
2023-02-03T04:16:26.301Z,0.90
2023-02-03T04:18:52.734Z,1.15
2023-02-03T04:21:19.181Z,1.00
2023-02-03T04:23:45.506Z,0.80
2023-02-03T04:26:11.887Z,0.80
2023-02-03T04:28:38.242Z,0.98
2023-02-03T04:31:04.838Z,1.10
2023-02-03T04:33:31.413Z,1.00
2023-02-03T04:35:58.138Z,1.50
2023-02-03T04:38:24.559Z,0.70
2023-02-03T04:40:51.225Z,0.70
2023-02-03T04:43:17.599Z,1.02
2023-02-03T04:45:44.098Z,0.88
2023-02-03T04:48:10.899Z,1.40
2023-02-03T04:50:38.329Z,0.90
2023-02-03T04:53:04.668Z,1.20
2023-02-03T04:55:31.177Z,1.20
2023-02-03T04:57:59.253Z,1.00
2023-02-03T05:00:27.116Z,1.30
2023-02-03T05:02:53.607Z,0.75
2023-02-03T05:05:20.233Z,1.25
2023-02-03T05:07:46.704Z,1.35
2023-02-03T05:10:13.326Z,1.08
2023-02-03T05:12:39.780Z,1.13
2023-02-03T05:15:06.577Z,1.52
2023-02-03T05:17:33.149Z,1.40
2023-02-03T05:19:59.750Z,1.23
2023-02-03T05:22:26.281Z,1.52
2023-02-03T05:24:52.895Z,1.20
2023-02-03T05:27:20.083Z,1.00
2023-02-03T05:29:46.498Z,1.20
2023-02-03T05:32:13.166Z,1.40
2023-02-03T05:34:42.007Z,1.10
2023-02-03T05:37:08.751Z,1.63
2023-02-03T05:39:35.136Z,1.30
2023-02-03T05:42:01.583Z,1.10
2023-02-03T05:44:28.734Z,1.30
2023-02-03T05:46:57.508Z,1.10
2023-02-03T05:49:24.262Z,1.52
2023-02-03T05:51:52.360Z,2.10
2023-02-03T05:54:19.148Z,2.10
2023-02-03T05:56:45.556Z,1.73
2023-02-03T05:59:12.111Z,1.45
2023-02-03T06:01:38.975Z,2.00
2023-02-03T06:04:06.073Z,1.35
2023-02-03T06:06:32.739Z,1.92
2023-02-03T06:09:06.428Z,1.70
2023-02-03T06:11:33.526Z,2.00
2023-02-03T06:14:00.531Z,1.73
2023-02-03T06:16:29.035Z,1.50
2023-02-03T06:18:56.781Z,1.38
2023-02-03T06:21:23.309Z,1.33
2023-02-03T06:23:50.006Z,1.58
2023-02-03T06:26:16.574Z,1.30
2023-02-03T06:28:42.927Z,1.08
2023-02-03T06:31:09.501Z,1.67
2023-02-03T06:33:36.131Z,1.20
2023-02-03T06:36:02.656Z,1.48
2023-02-03T06:38:29.058Z,1.50
2023-02-03T06:40:55.503Z,1.38
2023-02-03T06:43:21.945Z,1.70
2023-02-03T06:45:48.436Z,1.75
2023-02-03T06:48:15.478Z,1.27
2023-02-03T06:50:43.134Z,1.35
2023-02-03T06:53:09.640Z,1.63
2023-02-03T06:55:36.280Z,1.30
2023-02-03T06:58:02.894Z,1.25
2023-02-03T07:00:29.671Z,1.40
2023-02-03T07:02:58.276Z,1.60
2023-02-03T07:05:26.448Z,1.60
2023-02-03T07:07:52.925Z,1.33
2023-02-03T07:10:19.643Z,1.30
2023-02-03T07:12:45.988Z,1.20
2023-02-03T07:15:13.029Z,1.77
2023-02-03T07:17:39.542Z,0.90
2023-02-03T07:20:06.287Z,1.42
2023-02-03T07:22:32.668Z,1.70
2023-02-03T07:24:59.295Z,1.23
2023-02-03T07:27:27.077Z,1.55
2023-02-03T07:29:53.795Z,1.65
2023-02-03T07:32:20.204Z,1.60
2023-02-03T07:34:46.616Z,1.45
2023-02-03T07:37:13.073Z,1.40
2023-02-03T07:39:39.669Z,1.40
2023-02-03T07:42:06.138Z,1.40
2023-02-03T07:44:32.568Z,1.50
2023-02-03T07:46:58.883Z,1.60
2023-02-03T07:49:25.337Z,1.63
2023-02-03T07:51:51.961Z,2.28
2023-02-03T07:54:18.631Z,2.40
2023-02-03T07:56:44.980Z,2.40
2023-02-03T07:59:11.429Z,1.83
2023-02-03T08:01:37.908Z,1.85
2023-02-03T08:04:04.614Z,1.60
2023-02-03T08:06:31.383Z,2.28
2023-02-03T08:09:00.049Z,2.83
2023-02-03T08:11:28.931Z,1.60
2023-02-03T08:13:55.683Z,1.58
2023-02-03T08:16:22.253Z,2.05
2023-02-03T08:18:48.704Z,1.95
2023-02-03T08:21:15.055Z,2.47
2023-02-03T08:23:41.425Z,2.10
2023-02-03T08:26:07.821Z,2.20
2023-02-03T08:28:34.855Z,2.30
2023-02-03T08:31:01.393Z,2.83
2023-02-03T08:33:32.636Z,1.83
2023-02-03T08:35:59.337Z,3.25
2023-02-03T08:38:26.007Z,1.92
2023-02-03T08:40:52.516Z,1.80
2023-02-03T08:43:19.475Z,1.88
2023-02-03T08:45:48.894Z,1.92
2023-02-03T08:48:15.615Z,2.25
2023-02-03T08:50:45.920Z,2.20
2023-02-03T08:53:14.760Z,3.40
2023-02-03T08:55:41.670Z,1.80
2023-02-03T08:58:08.130Z,2.17
2023-02-03T09:00:35.254Z,1.83
2023-02-03T09:03:02.729Z,1.80
2023-02-03T09:05:30.839Z,1.75
2023-02-03T09:07:57.903Z,2.58
2023-02-03T09:10:24.372Z,2.03
2023-02-03T09:12:50.876Z,2.00
2023-02-03T09:15:17.461Z,2.40
2023-02-03T09:17:44.500Z,2.20
2023-02-03T09:20:11.600Z,2.08
2023-02-03T09:22:38.394Z,1.80
2023-02-03T09:25:06.391Z,2.17
2023-02-03T09:27:33.272Z,1.42
2023-02-03T09:30:00.834Z,1.67
2023-02-03T09:32:27.367Z,1.60
2023-02-03T09:34:53.813Z,1.40
2023-02-03T09:37:20.772Z,2.33
2023-02-03T09:39:47.921Z,1.90
2023-02-03T09:42:34.511Z,1.90
2023-02-03T09:45:26.083Z,1.48
2023-02-03T09:47:54.704Z,1.50
2023-02-03T09:50:24.942Z,1.92
2023-02-03T09:52:52.530Z,1.25
2023-02-03T09:55:44.094Z,1.40
2023-02-03T09:58:21.636Z,1.70
2023-02-03T10:00:53.159Z,1.27
2023-02-03T10:03:32.759Z,1.30
2023-02-03T10:06:30.982Z,1.20
2023-02-03T10:09:16.146Z,1.02
2023-02-03T10:12:08.847Z,1.38
2023-02-03T10:14:50.754Z,1.17
2023-02-03T10:17:27.861Z,1.17
2023-02-03T10:20:02.352Z,1.55
2023-02-03T10:22:32.460Z,1.00
2023-02-03T10:25:41.673Z,1.40
2023-02-03T10:28:19.867Z,1.95
2023-02-03T10:30:50.472Z,1.42
2023-02-03T10:33:18.888Z,2.20
2023-02-03T10:36:01.626Z,1.52
2023-02-03T10:38:37.134Z,1.50
2023-02-03T10:41:04.327Z,1.40
2023-02-03T10:43:32.747Z,1.20
2023-02-03T10:45:59.457Z,1.77
2023-02-03T10:48:26.329Z,1.38
2023-02-03T10:50:54.959Z,1.20
2023-02-03T10:53:43.477Z,1.02
2023-02-03T10:56:16.207Z,1.25
2023-02-03T10:58:52.534Z,0.93
2023-02-03T11:01:22.087Z,1.45
2023-02-03T11:03:58.802Z,1.52
2023-02-03T11:06:25.804Z,1.08
2023-02-03T11:08:52.789Z,1.40
2023-02-03T11:11:25.390Z,1.58
2023-02-03T11:14:04.975Z,1.52
2023-02-03T11:16:34.586Z,1.10
2023-02-03T11:19:16.053Z,0.90
2023-02-03T11:21:47.819Z,1.55
2023-02-03T11:24:31.525Z,0.93
2023-02-03T11:27:05.993Z,0.90
2023-02-03T11:30:06.908Z,0.80
2023-02-03T11:32:37.773Z,0.90
2023-02-03T11:35:13.270Z,0.90
2023-02-03T11:37:42.273Z,0.75
2023-02-03T11:40:08.984Z,1.30
2023-02-03T11:42:38.134Z,1.65
2023-02-03T11:45:27.878Z,1.13
2023-02-03T11:48:16.204Z,1.17
2023-02-03T11:50:57.520Z,1.10
2023-02-03T11:53:56.968Z,1.30
2023-02-03T11:57:09.312Z,1.13
2023-02-03T11:59:46.222Z,0.90
2023-02-03T12:02:30.631Z,1.42
2023-02-03T12:05:29.285Z,1.50
2023-02-03T12:08:17.572Z,1.20
2023-02-03T12:11:32.385Z,1.08
2023-02-03T12:14:17.114Z,1.02
2023-02-03T12:16:52.456Z,1.00
2023-02-03T12:19:32.090Z,0.90
2023-02-03T12:22:26.734Z,1.00
2023-02-03T12:25:32.294Z,2.03
2023-02-03T12:28:33.303Z,1.10
2023-02-03T12:31:29.415Z,1.80
2023-02-03T12:34:14.730Z,1.40
2023-02-03T12:36:49.486Z,0.98
2023-02-03T12:39:21.695Z,0.90
2023-02-03T12:42:14.959Z,0.80
2023-02-03T12:45:05.871Z,1.08
2023-02-03T12:47:50.996Z,1.00
2023-02-03T12:50:20.323Z,0.90
2023-02-03T12:53:05.851Z,1.33
2023-02-03T12:55:53.232Z,0.80
2023-02-03T12:58:35.516Z,0.68
2023-02-03T13:01:36.631Z,0.70
2023-02-03T13:07:06.446Z,0.80
2023-02-03T13:09:45.805Z,0.80
2023-02-03T13:12:23.809Z,0.80
2023-02-03T13:14:57.062Z,1.02
2023-02-03T13:17:37.954Z,1.25
2023-02-03T13:20:19.127Z,0.85
2023-02-03T13:22:46.462Z,0.90
2023-02-03T13:25:35.367Z,1.00
2023-02-03T13:28:11.197Z,0.93
2023-02-03T13:30:56.852Z,1.00
2023-02-03T13:33:44.660Z,0.90
2023-02-03T13:36:34.263Z,1.00
2023-02-03T13:39:13.214Z,0.85
2023-02-03T13:42:02.805Z,0.80
2023-02-03T13:44:29.757Z,0.85
2023-02-03T13:46:59.163Z,0.70
2023-02-03T13:49:37.053Z,0.82
2023-02-03T13:52:03.735Z,0.80
2023-02-03T13:54:43.468Z,0.60
2023-02-03T13:57:32.255Z,0.98
2023-02-03T13:59:58.716Z,1.10
2023-02-03T14:02:25.059Z,0.88
2023-02-03T14:04:57.151Z,1.05
2023-02-03T14:07:37.081Z,1.20
2023-02-03T14:10:20.654Z,1.38
2023-02-03T14:12:49.809Z,2.25
2023-02-03T14:15:25.288Z,1.80
2023-02-03T14:18:03.803Z,1.45
2023-02-03T14:20:30.228Z,2.05
2023-02-03T14:23:05.775Z,4.20
2023-02-03T14:25:39.203Z,3.90
2023-02-03T14:28:10.291Z,3.83
2023-02-03T14:31:07.914Z,1.10
2023-02-03T14:33:58.443Z,2.92
2023-02-03T14:36:27.871Z,1.83
2023-02-03T14:38:56.256Z,1.10
2023-02-03T14:41:37.047Z,1.10
2023-02-03T14:44:30.968Z,0.90
2023-02-03T14:47:08.111Z,0.70
2023-02-03T14:50:16.599Z,0.80
2023-02-03T14:53:07.000Z,1.10
2023-02-03T14:55:42.401Z,0.98
2023-02-03T14:58:25.865Z,0.80
2023-02-03T15:00:52.300Z,0.93
2023-02-03T15:03:21.062Z,0.90
2023-02-03T15:05:50.963Z,0.90
2023-02-03T15:08:35.066Z,1.20
2023-02-03T15:11:25.441Z,0.63
2023-02-03T15:13:51.868Z,0.80
2023-02-03T15:16:23.462Z,1.10
2023-02-03T15:19:00.862Z,1.00
2023-02-03T15:21:27.466Z,1.00
2023-02-03T15:23:54.383Z,1.00
2023-02-03T15:26:24.125Z,1.17
2023-02-03T15:29:20.729Z,1.10
2023-02-03T15:31:50.974Z,1.05
2023-02-03T15:34:29.947Z,1.20
2023-02-03T15:37:01.631Z,0.93
2023-02-03T15:39:38.978Z,0.85
2023-02-03T15:42:12.063Z,1.00
2023-02-03T15:44:46.255Z,1.13
2023-02-03T15:47:42.996Z,1.05
2023-02-03T15:50:29.085Z,0.90
2023-02-03T15:52:59.414Z,1.10
2023-02-03T15:55:39.228Z,1.40
2023-02-03T15:58:06.273Z,1.10
2023-02-03T16:00:40.351Z,1.13
2023-02-03T16:03:18.954Z,0.70
2023-02-03T16:05:46.708Z,1.08
2023-02-03T16:08:36.790Z,0.88
2023-02-03T16:11:21.457Z,1.15
2023-02-03T16:13:48.131Z,1.08
2023-02-03T16:16:29.616Z,0.80
2023-02-03T16:19:09.502Z,0.88
2023-02-03T16:21:48.179Z,1.30
2023-02-03T16:24:36.277Z,0.80
2023-02-03T16:27:27.816Z,0.85
2023-02-03T16:30:15.307Z,0.80
2023-02-03T16:32:41.764Z,0.65
2023-02-03T16:35:10.287Z,0.77
2023-02-03T16:37:44.973Z,0.80
2023-02-03T16:40:14.314Z,1.10
2023-02-03T16:42:40.721Z,1.10
2023-02-03T16:45:17.504Z,1.23
2023-02-03T16:47:45.762Z,1.38
2023-02-03T16:50:36.472Z,1.10
2023-02-03T16:53:05.241Z,0.93
2023-02-03T16:55:31.893Z,0.93
2023-02-03T16:57:59.530Z,0.90
2023-02-03T17:00:26.209Z,1.25
2023-02-03T17:02:53.094Z,1.35
2023-02-03T17:05:21.869Z,1.20
2023-02-03T17:07:48.398Z,1.15
2023-02-03T17:10:17.179Z,1.40
2023-02-03T17:12:43.614Z,1.00
2023-02-03T17:15:10.147Z,1.50
2023-02-03T17:17:37.044Z,1.10
2023-02-03T17:20:04.263Z,1.35
2023-02-03T17:22:30.771Z,1.85
2023-02-03T17:24:57.409Z,1.27
2023-02-03T17:27:23.881Z,1.98
2023-02-03T17:29:50.585Z,1.63
2023-02-03T17:32:17.235Z,2.80
2023-02-03T17:34:44.077Z,1.42
2023-02-03T17:37:10.458Z,1.90
2023-02-03T17:55:43.465Z,8.98
2023-02-03T17:58:09.870Z,13.05
2023-02-03T18:00:39.281Z,13.48
2023-02-03T18:03:06.650Z,8.15
2023-02-03T18:05:33.043Z,8.75
2023-02-03T18:08:03.352Z,6.38
2023-02-03T18:10:35.996Z,7.15
2023-02-03T18:13:02.811Z,4.85
2023-02-03T18:15:29.378Z,4.97
2023-02-03T18:17:55.753Z,2.45
2023-02-03T18:20:22.488Z,2.13
2023-02-03T18:22:48.927Z,3.38
2023-02-03T18:25:15.455Z,2.00
2023-02-03T18:27:42.124Z,2.92
2023-02-03T18:30:09.558Z,1.98
2023-02-03T18:32:36.003Z,1.83
2023-02-03T18:35:02.806Z,1.70
2023-02-03T18:37:29.786Z,2.13
2023-02-03T18:39:56.219Z,1.55
2023-02-03T18:42:22.579Z,1.67
2023-02-03T18:44:48.975Z,1.77
2023-02-03T18:47:15.313Z,1.30
2023-02-03T18:49:45.120Z,1.20
2023-02-03T18:52:11.862Z,1.20
2023-02-03T18:54:38.273Z,1.38
2023-02-03T18:57:06.155Z,1.20
2023-02-03T18:59:32.652Z,1.20
2023-02-03T19:01:59.550Z,1.10
2023-02-03T19:04:26.100Z,1.48
2023-02-03T19:06:53.842Z,1.20
2023-02-03T19:09:20.247Z,2.88
2023-02-03T19:11:46.691Z,1.08
2023-02-03T19:14:13.968Z,1.45
2023-02-03T19:16:40.730Z,1.40
2023-02-03T19:19:07.214Z,2.03
2023-02-03T19:21:33.947Z,1.50
2023-02-03T19:24:05.212Z,1.48
2023-02-03T19:26:31.872Z,2.80
2023-02-03T19:28:59.092Z,2.22
2023-02-03T19:31:25.496Z,2.30
2023-02-03T19:33:52.088Z,4.07
2023-02-03T19:36:19.892Z,4.72
2023-02-03T19:38:46.297Z,1.75
2023-02-03T19:41:13.818Z,1.92
2023-02-03T19:43:40.330Z,3.97
2023-02-03T19:46:08.084Z,2.78
2023-02-03T19:48:38.653Z,3.55
2023-02-03T19:51:05.878Z,3.88
2023-02-03T19:53:32.336Z,2.92
2023-02-03T19:56:02.277Z,3.20
2023-02-03T19:58:30.128Z,3.60
2023-02-03T20:00:56.871Z,3.22
2023-02-03T20:03:23.845Z,2.92
2023-02-03T20:05:53.859Z,2.38
2023-02-03T20:08:20.482Z,9.00
2023-02-03T20:10:47.026Z,4.45
2023-02-03T20:13:14.255Z,2.72
2023-02-03T20:15:41.587Z,2.90
2023-02-03T20:18:09.147Z,2.13
2023-02-03T20:20:37.496Z,1.80
2023-02-03T20:23:03.929Z,2.25
2023-02-03T20:25:30.539Z,1.77
2023-02-03T20:27:57.798Z,1.17
2023-02-03T20:30:24.248Z,1.63
2023-02-03T20:32:50.637Z,1.67
2023-02-03T20:35:19.490Z,1.40
2023-02-03T20:37:46.187Z,1.50
2023-02-03T20:40:18.355Z,1.27
2023-02-03T20:42:44.999Z,1.55
2023-02-03T20:45:15.905Z,1.92
2023-02-03T20:47:43.025Z,1.80
2023-02-03T20:50:41.462Z,1.77
2023-02-03T20:53:13.810Z,1.83
2023-02-03T20:55:40.880Z,2.13
2023-02-03T20:58:28.439Z,3.50
2023-02-03T21:00:54.940Z,5.75
2023-02-03T21:03:21.447Z,7.03
2023-02-03T21:05:47.963Z,8.68
2023-02-03T21:08:16.257Z,4.85
2023-02-03T21:10:44.951Z,3.80
2023-02-03T21:13:25.248Z,3.53
2023-02-03T21:16:02.402Z,3.15
2023-02-03T21:18:47.120Z,3.15
2023-02-03T21:21:19.943Z,2.90
2023-02-03T21:23:47.670Z,2.25
2023-02-03T21:26:43.336Z,1.77
2023-02-03T21:29:25.168Z,1.60
2023-02-03T21:31:52.442Z,1.50
2023-02-03T21:34:26.274Z,1.50
2023-02-03T21:36:52.672Z,2.08
2023-02-03T21:39:21.998Z,2.10
2023-02-03T21:41:48.400Z,2.25
2023-02-03T21:44:33.567Z,1.42
2023-02-03T21:47:21.477Z,1.88
2023-02-03T21:49:47.774Z,1.60
2023-02-03T21:52:14.316Z,1.23
2023-02-03T21:54:43.447Z,1.38
2023-02-03T21:57:13.959Z,2.22
2023-02-03T21:59:40.831Z,1.45
2023-02-03T22:02:46.553Z,1.40
2023-02-03T22:05:16.414Z,1.52
2023-02-03T22:07:43.039Z,1.23
2023-02-03T22:10:09.696Z,1.05
2023-02-03T22:12:36.045Z,1.15
2023-02-03T22:15:02.719Z,1.63
2023-02-03T22:17:29.104Z,1.35
2023-02-03T22:19:55.445Z,1.67
2023-02-03T22:22:21.849Z,1.88
2023-02-03T22:24:48.529Z,1.90
2023-02-03T22:27:14.884Z,1.90
2023-02-03T22:29:41.278Z,2.03
2023-02-03T22:32:07.619Z,2.58
2023-02-03T22:34:34.064Z,2.20
2023-02-03T22:37:00.474Z,2.80
2023-02-03T22:39:26.975Z,2.65
2023-02-03T22:41:53.425Z,2.80
2023-02-03T22:44:19.833Z,2.92
2023-02-03T22:46:46.267Z,3.45
2023-02-03T22:49:12.661Z,3.50
2023-02-03T22:51:39.048Z,3.30
2023-02-03T22:54:05.645Z,4.35
2023-02-03T22:56:32.031Z,4.10
2023-02-03T22:58:58.519Z,3.90
2023-02-03T23:01:24.976Z,3.92
2023-02-03T23:03:51.341Z,4.60
2023-02-03T23:06:17.987Z,4.13
2023-02-03T23:08:44.353Z,4.50
2023-02-03T23:11:11.066Z,4.13
2023-02-03T23:13:37.463Z,4.18
2023-02-03T23:16:05.560Z,3.70
2023-02-03T23:18:32.000Z,4.68
2023-02-03T23:21:01.190Z,3.65
2023-02-03T23:23:27.619Z,3.92
2023-02-03T23:25:54.082Z,3.97
2023-02-03T23:28:20.541Z,4.30
2023-02-03T23:30:47.189Z,4.18
2023-02-03T23:33:13.911Z,4.18
2023-02-03T23:35:40.574Z,4.07
2023-02-03T23:38:06.920Z,3.67
2023-02-03T23:40:33.556Z,3.95
2023-02-03T23:43:00.114Z,3.95
2023-02-03T23:45:26.563Z,4.07
2023-02-03T23:47:53.071Z,3.83
2023-02-03T23:50:19.469Z,4.10
2023-02-03T23:52:49.213Z,3.90
2023-02-03T23:55:18.948Z,4.50
2023-02-03T23:57:45.628Z,3.72
